sensor_id;sensor_type;location;lat;lon;timestamp;temperature;humidity
80701;DHT22;71609;42.630;23.380;2024-02-15T09:55:08;24.00;29.50
80701;DHT22;71609;42.630;23.380;2024-02-15T09:57:44;24.20;30.00
80701;DHT22;71609;42.630;23.380;2024-02-15T10:00:11;24.40;29.80
80701;DHT22;71609;42.630;23.380;2024-02-15T10:02:41;24.40;29.50
80701;DHT22;71609;42.630;23.380;2024-02-15T10:05:08;24.50;29.20
80701;DHT22;71609;42.630;23.380;2024-02-15T10:07:40;24.60;28.80
80701;DHT22;71609;42.630;23.380;2024-02-15T10:10:24;24.50;27.90
80701;DHT22;71609;42.630;23.380;2024-02-15T10:12:53;24.60;28.50
80701;DHT22;71609;42.630;23.380;2024-02-15T10:15:32;24.60;28.30
80701;DHT22;71609;42.630;23.380;2024-02-15T10:17:59;24.60;28.70
80701;DHT22;71609;42.630;23.380;2024-02-15T10:20:25;24.60;28.50
80701;DHT22;71609;42.630;23.380;2024-02-15T10:23:11;24.60;28.40
80701;DHT22;71609;42.630;23.380;2024-02-15T10:25:39;24.60;27.60
80701;DHT22;71609;42.630;23.380;2024-02-15T10:28:07;24.50;27.20
80701;DHT22;71609;42.630;23.380;2024-02-15T10:30:40;24.40;27.00
80701;DHT22;71609;42.630;23.380;2024-02-15T10:33:09;24.40;26.20
80701;DHT22;71609;42.630;23.380;2024-02-15T10:35:35;24.20;26.10
80701;DHT22;71609;42.630;23.380;2024-02-15T10:38:11;24.20;26.20
80701;DHT22;71609;42.630;23.380;2024-02-15T10:40:39;24.20;26.20
80701;DHT22;71609;42.630;23.380;2024-02-15T10:43:09;24.20;25.70
80701;DHT22;71609;42.630;23.380;2024-02-15T10:45:38;24.10;27.70
80701;DHT22;71609;42.630;23.380;2024-02-15T10:48:11;24.00;27.70
80701;DHT22;71609;42.630;23.380;2024-02-15T10:50:41;24.00;27.20
80701;DHT22;71609;42.630;23.380;2024-02-15T10:53:30;24.00;26.60
80701;DHT22;71609;42.630;23.380;2024-02-15T10:58:33;23.80;27.00
80701;DHT22;71609;42.630;23.380;2024-02-15T11:01:06;23.70;26.90
80701;DHT22;71609;42.630;23.380;2024-02-15T11:03:45;23.70;26.90
80701;DHT22;71609;42.630;23.380;2024-02-15T11:06:14;23.60;26.40
80701;DHT22;71609;42.630;23.380;2024-02-15T11:08:41;23.60;26.70
80701;DHT22;71609;42.630;23.380;2024-02-15T11:11:07;23.50;26.30
80701;DHT22;71609;42.630;23.380;2024-02-15T11:13:37;23.50;26.70
80701;DHT22;71609;42.630;23.380;2024-02-15T11:16:03;23.50;26.60
80701;DHT22;71609;42.630;23.380;2024-02-15T11:21:11;23.40;26.10
80701;DHT22;71609;42.630;23.380;2024-02-15T11:23:37;23.30;26.60
80701;DHT22;71609;42.630;23.380;2024-02-15T11:26:04;23.30;26.50
80701;DHT22;71609;42.630;23.380;2024-02-15T11:30:56;23.30;26.20
80701;DHT22;71609;42.630;23.380;2024-02-15T11:38:31;23.40;26.20
80701;DHT22;71609;42.630;23.380;2024-02-15T11:43:52;23.50;26.70
80701;DHT22;71609;42.630;23.380;2024-02-15T11:46:23;23.50;26.40
80701;DHT22;71609;42.630;23.380;2024-02-15T11:49:01;23.50;26.60
80701;DHT22;71609;42.630;23.380;2024-02-15T11:51:33;23.40;26.70
80701;DHT22;71609;42.630;23.380;2024-02-15T11:56:48;23.40;26.70
80701;DHT22;71609;42.630;23.380;2024-02-15T11:59:16;23.40;26.40
80701;DHT22;71609;42.630;23.380;2024-02-15T12:01:57;23.40;26.40
80701;DHT22;71609;42.630;23.380;2024-02-15T12:04:45;23.40;26.70
80701;DHT22;71609;42.630;23.380;2024-02-15T12:07:30;23.40;26.80
80701;DHT22;71609;42.630;23.380;2024-02-15T12:10:18;23.40;27.50
80701;DHT22;71609;42.630;23.380;2024-02-15T12:13:04;23.40;27.00
80701;DHT22;71609;42.630;23.380;2024-02-15T12:15:58;23.40;26.70
80701;DHT22;71609;42.630;23.380;2024-02-15T12:18:43;23.40;27.10
80701;DHT22;71609;42.630;23.380;2024-02-15T12:21:16;23.40;26.90
80701;DHT22;71609;42.630;23.380;2024-02-15T12:23:43;23.40;27.10
80701;DHT22;71609;42.630;23.380;2024-02-15T12:26:09;23.30;27.20
80701;DHT22;71609;42.630;23.380;2024-02-15T12:28:35;23.30;27.30
80701;DHT22;71609;42.630;23.380;2024-02-15T12:31:01;23.30;27.50
80701;DHT22;71609;42.630;23.380;2024-02-15T12:33:28;23.30;27.50
80701;DHT22;71609;42.630;23.380;2024-02-15T12:36:06;23.30;27.50
80701;DHT22;71609;42.630;23.380;2024-02-15T12:38:33;23.40;27.60
80701;DHT22;71609;42.630;23.380;2024-02-15T12:41:23;23.40;27.40
80701;DHT22;71609;42.630;23.380;2024-02-15T12:43:53;23.40;27.40
80701;DHT22;71609;42.630;23.380;2024-02-15T12:46:19;23.40;27.70
80701;DHT22;71609;42.630;23.380;2024-02-15T12:48:45;23.30;27.70
80701;DHT22;71609;42.630;23.380;2024-02-15T12:51:14;23.30;27.50
80701;DHT22;71609;42.630;23.380;2024-02-15T12:53:41;23.30;27.40
80701;DHT22;71609;42.630;23.380;2024-02-15T12:56:09;23.30;27.40
80701;DHT22;71609;42.630;23.380;2024-02-15T12:58:35;23.30;27.40
80701;DHT22;71609;42.630;23.380;2024-02-15T13:01:01;23.30;27.60
80701;DHT22;71609;42.630;23.380;2024-02-15T13:03:29;23.30;28.00
80701;DHT22;71609;42.630;23.380;2024-02-15T13:05:55;23.30;28.10
80701;DHT22;71609;42.630;23.380;2024-02-15T13:08:22;23.30;28.00
80701;DHT22;71609;42.630;23.380;2024-02-15T13:10:48;23.30;28.20
80701;DHT22;71609;42.630;23.380;2024-02-15T13:13:14;23.30;28.30
80701;DHT22;71609;42.630;23.380;2024-02-15T13:15:41;23.30;28.40
80701;DHT22;71609;42.630;23.380;2024-02-15T13:18:07;23.20;28.50
80701;DHT22;71609;42.630;23.380;2024-02-15T13:20:36;23.20;28.80
80701;DHT22;71609;42.630;23.380;2024-02-15T13:25:37;23.20;29.30
80701;DHT22;71609;42.630;23.380;2024-02-15T13:28:05;23.10;29.30
80701;DHT22;71609;42.630;23.380;2024-02-15T13:30:32;23.10;29.30
80701;DHT22;71609;42.630;23.380;2024-02-15T13:32:58;23.20;29.20
80701;DHT22;71609;42.630;23.380;2024-02-15T13:35:24;23.20;29.20
80701;DHT22;71609;42.630;23.380;2024-02-15T13:37:52;23.20;29.10
80701;DHT22;71609;42.630;23.380;2024-02-15T13:40:19;23.20;29.00
80701;DHT22;71609;42.630;23.380;2024-02-15T13:42:48;23.20;29.10
80701;DHT22;71609;42.630;23.380;2024-02-15T13:45:40;23.20;29.00
80701;DHT22;71609;42.630;23.380;2024-02-15T13:48:07;23.30;29.30
80701;DHT22;71609;42.630;23.380;2024-02-15T13:50:34;23.20;29.30
80701;DHT22;71609;42.630;23.380;2024-02-15T13:53:00;23.20;30.00
80701;DHT22;71609;42.630;23.380;2024-02-15T13:55:27;23.20;29.30
80701;DHT22;71609;42.630;23.380;2024-02-15T13:57:55;23.20;29.30
80701;DHT22;71609;42.630;23.380;2024-02-15T14:00:22;23.20;29.30
80701;DHT22;71609;42.630;23.380;2024-02-15T14:02:52;23.10;29.50
80701;DHT22;71609;42.630;23.380;2024-02-15T14:05:23;23.20;29.80
80701;DHT22;71609;42.630;23.380;2024-02-15T14:07:56;23.10;30.20
80701;DHT22;71609;42.630;23.380;2024-02-15T14:10:22;23.10;31.10
80701;DHT22;71609;42.630;23.380;2024-02-15T14:12:50;23.10;31.30
80701;DHT22;71609;42.630;23.380;2024-02-15T14:15:18;23.00;31.50
80701;DHT22;71609;42.630;23.380;2024-02-15T14:17:47;23.00;31.70
80701;DHT22;71609;42.630;23.380;2024-02-15T14:20:13;23.00;30.70
80701;DHT22;71609;42.630;23.380;2024-02-15T14:22:47;23.00;30.10
80701;DHT22;71609;42.630;23.380;2024-02-15T14:25:21;23.00;29.80
80701;DHT22;71609;42.630;23.380;2024-02-15T14:27:46;23.10;30.10
80701;DHT22;71609;42.630;23.380;2024-02-15T14:30:15;23.10;30.00
80701;DHT22;71609;42.630;23.380;2024-02-15T14:32:59;23.10;29.80
80701;DHT22;71609;42.630;23.380;2024-02-15T14:35:26;23.10;29.70
80701;DHT22;71609;42.630;23.380;2024-02-15T14:37:54;23.20;29.80
80701;DHT22;71609;42.630;23.380;2024-02-15T14:40:22;23.20;30.00
80701;DHT22;71609;42.630;23.380;2024-02-15T14:42:48;23.30;30.10
80701;DHT22;71609;42.630;23.380;2024-02-15T14:45:14;23.20;30.50
80701;DHT22;71609;42.630;23.380;2024-02-15T14:47:40;23.20;30.20
80701;DHT22;71609;42.630;23.380;2024-02-15T14:50:08;23.30;30.00
80701;DHT22;71609;42.630;23.380;2024-02-15T14:52:37;23.30;29.80
80701;DHT22;71609;42.630;23.380;2024-02-15T14:55:04;23.40;29.80
80701;DHT22;71609;42.630;23.380;2024-02-15T14:57:34;23.40;29.80
80701;DHT22;71609;42.630;23.380;2024-02-15T15:00:01;23.40;29.70
80701;DHT22;71609;42.630;23.380;2024-02-15T15:02:27;23.50;29.70
80701;DHT22;71609;42.630;23.380;2024-02-15T15:04:53;23.50;29.60
80701;DHT22;71609;42.630;23.380;2024-02-15T15:07:37;23.50;29.50
80701;DHT22;71609;42.630;23.380;2024-02-15T15:10:21;23.50;29.50
80701;DHT22;71609;42.630;23.380;2024-02-15T15:13:05;23.60;29.50
80701;DHT22;71609;42.630;23.380;2024-02-15T15:15:31;23.60;29.40
80701;DHT22;71609;42.630;23.380;2024-02-15T15:17:56;23.60;30.20
80701;DHT22;71609;42.630;23.380;2024-02-15T15:20:22;23.50;29.30
80701;DHT22;71609;42.630;23.380;2024-02-15T15:22:50;23.50;29.30
80701;DHT22;71609;42.630;23.380;2024-02-15T15:25:15;23.50;29.70
80701;DHT22;71609;42.630;23.380;2024-02-15T15:27:41;23.40;30.40
80701;DHT22;71609;42.630;23.380;2024-02-15T15:30:07;23.40;30.00
80701;DHT22;71609;42.630;23.380;2024-02-15T15:32:33;23.40;30.00
80701;DHT22;71609;42.630;23.380;2024-02-15T15:34:59;23.30;30.30
80701;DHT22;71609;42.630;23.380;2024-02-15T15:37:26;23.30;30.30
80701;DHT22;71609;42.630;23.380;2024-02-15T15:39:51;23.30;30.20
80701;DHT22;71609;42.630;23.380;2024-02-15T15:42:20;23.30;30.30
80701;DHT22;71609;42.630;23.380;2024-02-15T15:44:45;23.30;30.60
80701;DHT22;71609;42.630;23.380;2024-02-15T15:47:12;23.30;30.50
80701;DHT22;71609;42.630;23.380;2024-02-15T15:49:38;23.30;30.40
80701;DHT22;71609;42.630;23.380;2024-02-15T15:52:05;23.30;30.40
80701;DHT22;71609;42.630;23.380;2024-02-15T15:54:31;23.30;30.20
80701;DHT22;71609;42.630;23.380;2024-02-15T15:56:58;23.30;30.30
80701;DHT22;71609;42.630;23.380;2024-02-15T15:59:25;23.30;30.20
80701;DHT22;71609;42.630;23.380;2024-02-15T16:01:51;23.30;30.20
80701;DHT22;71609;42.630;23.380;2024-02-15T16:04:17;23.30;31.40
80701;DHT22;71609;42.630;23.380;2024-02-15T16:06:43;23.20;30.20
80701;DHT22;71609;42.630;23.380;2024-02-15T16:09:09;23.20;30.20
80701;DHT22;71609;42.630;23.380;2024-02-15T16:11:35;23.20;30.20
80701;DHT22;71609;42.630;23.380;2024-02-15T16:14:01;23.10;30.30
80701;DHT22;71609;42.630;23.380;2024-02-15T16:16:30;23.10;30.20
80701;DHT22;71609;42.630;23.380;2024-02-15T16:18:56;23.10;30.10
80701;DHT22;71609;42.630;23.380;2024-02-15T16:21:22;23.10;30.10
80701;DHT22;71609;42.630;23.380;2024-02-15T16:23:48;23.10;30.20
80701;DHT22;71609;42.630;23.380;2024-02-15T16:26:15;23.00;30.10
80701;DHT22;71609;42.630;23.380;2024-02-15T16:28:41;23.00;30.10
80701;DHT22;71609;42.630;23.380;2024-02-15T16:31:07;23.00;30.20
80701;DHT22;71609;42.630;23.380;2024-02-15T16:33:32;23.00;30.20
80701;DHT22;71609;42.630;23.380;2024-02-15T16:35:59;23.00;30.30
80701;DHT22;71609;42.630;23.380;2024-02-15T16:38:24;22.90;30.20
80701;DHT22;71609;42.630;23.380;2024-02-15T16:40:50;22.90;30.30
80701;DHT22;71609;42.630;23.380;2024-02-15T16:43:16;22.90;30.30
80701;DHT22;71609;42.630;23.380;2024-02-15T16:45:42;22.90;30.40
80701;DHT22;71609;42.630;23.380;2024-02-15T16:48:08;22.80;30.30
80701;DHT22;71609;42.630;23.380;2024-02-15T16:50:34;22.80;30.40
80701;DHT22;71609;42.630;23.380;2024-02-15T16:53:00;22.80;30.40
80701;DHT22;71609;42.630;23.380;2024-02-15T16:55:26;22.80;30.40
80701;DHT22;71609;42.630;23.380;2024-02-15T16:57:58;22.80;30.40
80701;DHT22;71609;42.630;23.380;2024-02-15T17:00:33;22.70;30.40
80701;DHT22;71609;42.630;23.380;2024-02-15T17:03:00;22.70;30.50
80701;DHT22;71609;42.630;23.380;2024-02-15T17:05:27;22.70;30.50
80701;DHT22;71609;42.630;23.380;2024-02-15T17:07:53;22.70;30.50
80701;DHT22;71609;42.630;23.380;2024-02-15T17:10:25;22.60;30.50
80701;DHT22;71609;42.630;23.380;2024-02-15T17:12:51;22.60;30.60
80701;DHT22;71609;42.630;23.380;2024-02-15T17:15:20;22.60;30.60
80701;DHT22;71609;42.630;23.380;2024-02-15T17:17:54;22.60;30.60
80701;DHT22;71609;42.630;23.380;2024-02-15T17:20:21;22.60;30.70
80701;DHT22;71609;42.630;23.380;2024-02-15T17:22:48;22.50;30.60
80701;DHT22;71609;42.630;23.380;2024-02-15T17:25:15;22.60;30.60
80701;DHT22;71609;42.630;23.380;2024-02-15T17:27:41;22.50;30.70
80701;DHT22;71609;42.630;23.380;2024-02-15T17:30:11;22.50;30.70
80701;DHT22;71609;42.630;23.380;2024-02-15T17:32:37;22.50;30.70
80701;DHT22;71609;42.630;23.380;2024-02-15T17:35:05;22.50;30.80
80701;DHT22;71609;42.630;23.380;2024-02-15T17:37:31;22.50;30.80
80701;DHT22;71609;42.630;23.380;2024-02-15T17:39:57;22.50;30.80
80701;DHT22;71609;42.630;23.380;2024-02-15T17:42:23;22.40;30.80
80701;DHT22;71609;42.630;23.380;2024-02-15T17:44:49;22.40;30.80
80701;DHT22;71609;42.630;23.380;2024-02-15T17:47:15;22.40;30.80
80701;DHT22;71609;42.630;23.380;2024-02-15T17:49:40;22.40;30.80
80701;DHT22;71609;42.630;23.380;2024-02-15T17:52:06;22.40;30.90
80701;DHT22;71609;42.630;23.380;2024-02-15T17:54:34;22.30;30.90
80701;DHT22;71609;42.630;23.380;2024-02-15T17:57:00;22.30;30.90
80701;DHT22;71609;42.630;23.380;2024-02-15T17:59:26;22.30;30.90
80701;DHT22;71609;42.630;23.380;2024-02-15T18:01:51;22.30;30.90
80701;DHT22;71609;42.630;23.380;2024-02-15T18:04:17;22.30;31.00
80701;DHT22;71609;42.630;23.380;2024-02-15T18:06:44;22.30;30.90
80701;DHT22;71609;42.630;23.380;2024-02-15T18:09:10;22.30;31.00
80701;DHT22;71609;42.630;23.380;2024-02-15T18:11:37;22.30;31.00
80701;DHT22;71609;42.630;23.380;2024-02-15T18:14:03;22.30;31.00
80701;DHT22;71609;42.630;23.380;2024-02-15T18:16:29;22.20;32.10
80701;DHT22;71609;42.630;23.380;2024-02-15T18:18:54;22.20;31.00
80701;DHT22;71609;42.630;23.380;2024-02-15T18:21:21;22.20;31.00
80701;DHT22;71609;42.630;23.380;2024-02-15T18:23:47;22.20;31.10
80701;DHT22;71609;42.630;23.380;2024-02-15T18:26:12;22.20;31.10
80701;DHT22;71609;42.630;23.380;2024-02-15T18:28:39;22.20;31.10
80701;DHT22;71609;42.630;23.380;2024-02-15T18:31:04;22.20;31.10
80701;DHT22;71609;42.630;23.380;2024-02-15T18:33:33;22.10;31.10
80701;DHT22;71609;42.630;23.380;2024-02-15T18:36:04;22.10;31.20
80701;DHT22;71609;42.630;23.380;2024-02-15T18:38:30;22.10;31.20
80701;DHT22;71609;42.630;23.380;2024-02-15T18:40:55;22.10;31.20
80701;DHT22;71609;42.630;23.380;2024-02-15T18:43:24;22.10;31.20
80701;DHT22;71609;42.630;23.380;2024-02-15T18:45:49;22.10;31.20
80701;DHT22;71609;42.630;23.380;2024-02-15T18:48:15;22.10;31.20
80701;DHT22;71609;42.630;23.380;2024-02-15T18:50:43;22.10;31.30
80701;DHT22;71609;42.630;23.380;2024-02-15T18:53:13;22.00;31.20
80701;DHT22;71609;42.630;23.380;2024-02-15T18:55:41;22.00;31.20
80701;DHT22;71609;42.630;23.380;2024-02-15T18:58:07;22.00;31.30
80701;DHT22;71609;42.630;23.380;2024-02-15T19:00:33;22.00;31.20
80701;DHT22;71609;42.630;23.380;2024-02-15T19:03:02;22.00;31.20
80701;DHT22;71609;42.630;23.380;2024-02-15T19:05:28;22.00;31.30
80701;DHT22;71609;42.630;23.380;2024-02-15T19:07:53;22.00;31.30
80701;DHT22;71609;42.630;23.380;2024-02-15T19:10:20;22.00;31.30
80701;DHT22;71609;42.630;23.380;2024-02-15T19:12:47;22.00;31.40
80701;DHT22;71609;42.630;23.380;2024-02-15T19:15:14;22.00;31.40
80701;DHT22;71609;42.630;23.380;2024-02-15T19:17:40;21.90;31.40
80701;DHT22;71609;42.630;23.380;2024-02-15T19:20:07;21.90;31.30
80701;DHT22;71609;42.630;23.380;2024-02-15T19:22:38;21.90;31.30
80701;DHT22;71609;42.630;23.380;2024-02-15T19:25:04;21.90;31.40
80701;DHT22;71609;42.630;23.380;2024-02-15T19:27:30;21.90;31.40
80701;DHT22;71609;42.630;23.380;2024-02-15T19:29:56;21.90;31.40
80701;DHT22;71609;42.630;23.380;2024-02-15T19:32:22;21.90;31.50
80701;DHT22;71609;42.630;23.380;2024-02-15T19:34:47;21.90;31.40
80701;DHT22;71609;42.630;23.380;2024-02-15T19:37:16;21.90;31.50
80701;DHT22;71609;42.630;23.380;2024-02-15T19:39:43;21.90;31.50
80701;DHT22;71609;42.630;23.380;2024-02-15T19:42:09;21.90;31.50
80701;DHT22;71609;42.630;23.380;2024-02-15T19:44:36;21.80;31.50
80701;DHT22;71609;42.630;23.380;2024-02-15T19:47:02;21.80;31.40
80701;DHT22;71609;42.630;23.380;2024-02-15T19:49:30;21.80;31.50
80701;DHT22;71609;42.630;23.380;2024-02-15T19:52:03;21.80;31.50
80701;DHT22;71609;42.630;23.380;2024-02-15T19:54:31;21.80;31.50
80701;DHT22;71609;42.630;23.380;2024-02-15T19:57:00;21.80;31.50
80701;DHT22;71609;42.630;23.380;2024-02-15T19:59:27;21.80;31.50
80701;DHT22;71609;42.630;23.380;2024-02-15T20:01:53;21.80;31.50
80701;DHT22;71609;42.630;23.380;2024-02-15T20:04:20;21.80;31.60
80701;DHT22;71609;42.630;23.380;2024-02-15T20:06:46;21.80;31.60
80701;DHT22;71609;42.630;23.380;2024-02-15T20:09:13;21.70;31.60
80701;DHT22;71609;42.630;23.380;2024-02-15T20:11:40;21.70;31.50
80701;DHT22;71609;42.630;23.380;2024-02-15T20:14:06;21.70;31.60
80701;DHT22;71609;42.630;23.380;2024-02-15T20:16:32;21.70;31.60
80701;DHT22;71609;42.630;23.380;2024-02-15T20:18:59;21.70;31.60
80701;DHT22;71609;42.630;23.380;2024-02-15T20:21:35;21.70;31.60
80701;DHT22;71609;42.630;23.380;2024-02-15T20:24:01;21.70;31.60
80701;DHT22;71609;42.630;23.380;2024-02-15T20:26:34;21.70;31.70
80701;DHT22;71609;42.630;23.380;2024-02-15T20:29:01;21.70;31.70
80701;DHT22;71609;42.630;23.380;2024-02-15T20:31:27;21.70;31.60
80701;DHT22;71609;42.630;23.380;2024-02-15T20:33:57;21.70;31.70
80701;DHT22;71609;42.630;23.380;2024-02-15T20:36:23;21.70;31.80
80701;DHT22;71609;42.630;23.380;2024-02-15T20:38:48;21.70;31.70
80701;DHT22;71609;42.630;23.380;2024-02-15T20:41:18;21.60;31.70
80701;DHT22;71609;42.630;23.380;2024-02-15T20:43:44;21.60;31.70
80701;DHT22;71609;42.630;23.380;2024-02-15T20:46:11;21.60;31.70
80701;DHT22;71609;42.630;23.380;2024-02-15T20:48:39;21.60;31.70
80701;DHT22;71609;42.630;23.380;2024-02-15T20:51:05;21.60;31.80
80701;DHT22;71609;42.630;23.380;2024-02-15T20:53:32;21.60;31.70
80701;DHT22;71609;42.630;23.380;2024-02-15T20:55:57;21.60;31.80
80701;DHT22;71609;42.630;23.380;2024-02-15T20:58:23;21.60;31.90
80701;DHT22;71609;42.630;23.380;2024-02-15T21:00:51;21.60;32.20
80701;DHT22;71609;42.630;23.380;2024-02-15T21:03:20;21.60;31.80
80701;DHT22;71609;42.630;23.380;2024-02-15T21:05:45;21.60;31.80
80701;DHT22;71609;42.630;23.380;2024-02-15T21:08:11;21.60;31.90
80701;DHT22;71609;42.630;23.380;2024-02-15T21:10:38;21.60;31.80
80701;DHT22;71609;42.630;23.380;2024-02-15T21:13:04;21.60;31.80
80701;DHT22;71609;42.630;23.380;2024-02-15T21:15:30;21.60;31.90
80701;DHT22;71609;42.630;23.380;2024-02-15T21:17:56;21.60;31.90
80701;DHT22;71609;42.630;23.380;2024-02-15T21:20:21;21.60;31.90
80701;DHT22;71609;42.630;23.380;2024-02-15T21:22:47;21.50;31.90
80701;DHT22;71609;42.630;23.380;2024-02-15T21:25:21;21.50;31.90
80701;DHT22;71609;42.630;23.380;2024-02-15T21:27:47;21.60;31.90
80701;DHT22;71609;42.630;23.380;2024-02-15T21:30:13;21.50;31.80
80701;DHT22;71609;42.630;23.380;2024-02-15T21:32:41;21.60;31.90
80701;DHT22;71609;42.630;23.380;2024-02-15T21:35:09;21.60;31.90
80701;DHT22;71609;42.630;23.380;2024-02-15T21:37:35;21.60;31.90
80701;DHT22;71609;42.630;23.380;2024-02-15T21:40:01;21.50;31.80
80701;DHT22;71609;42.630;23.380;2024-02-15T21:42:30;21.50;31.80
80701;DHT22;71609;42.630;23.380;2024-02-15T21:44:56;21.50;31.90
80701;DHT22;71609;42.630;23.380;2024-02-15T21:47:22;21.50;31.80
80701;DHT22;71609;42.630;23.380;2024-02-15T21:49:48;21.50;31.80
80701;DHT22;71609;42.630;23.380;2024-02-15T21:52:15;21.50;31.80
80701;DHT22;71609;42.630;23.380;2024-02-15T21:54:41;21.50;31.80
80701;DHT22;71609;42.630;23.380;2024-02-15T21:57:07;21.50;31.90
80701;DHT22;71609;42.630;23.380;2024-02-15T21:59:33;21.50;31.80
80701;DHT22;71609;42.630;23.380;2024-02-15T22:02:00;21.50;31.80
80701;DHT22;71609;42.630;23.380;2024-02-15T22:04:28;21.50;31.80
80701;DHT22;71609;42.630;23.380;2024-02-15T22:06:54;21.50;31.80
80701;DHT22;71609;42.630;23.380;2024-02-15T22:09:19;21.50;31.90
80701;DHT22;71609;42.630;23.380;2024-02-15T22:11:45;21.50;31.80
80701;DHT22;71609;42.630;23.380;2024-02-15T22:14:11;21.50;31.80
80701;DHT22;71609;42.630;23.380;2024-02-15T22:16:37;21.50;31.90
80701;DHT22;71609;42.630;23.380;2024-02-15T22:19:03;21.50;31.80
80701;DHT22;71609;42.630;23.380;2024-02-15T22:21:29;21.50;31.80
80701;DHT22;71609;42.630;23.380;2024-02-15T22:23:54;21.50;31.90
80701;DHT22;71609;42.630;23.380;2024-02-15T22:26:20;21.50;31.90
80701;DHT22;71609;42.630;23.380;2024-02-15T22:28:47;21.50;31.80
80701;DHT22;71609;42.630;23.380;2024-02-15T22:31:18;21.50;31.80
80701;DHT22;71609;42.630;23.380;2024-02-15T22:33:44;21.40;31.80
80701;DHT22;71609;42.630;23.380;2024-02-15T22:36:24;21.40;31.80
80701;DHT22;71609;42.630;23.380;2024-02-15T22:38:50;21.50;31.90
80701;DHT22;71609;42.630;23.380;2024-02-15T22:41:16;21.40;31.80
80701;DHT22;71609;42.630;23.380;2024-02-15T22:43:42;21.40;31.80
80701;DHT22;71609;42.630;23.380;2024-02-15T22:46:11;21.40;31.80
80701;DHT22;71609;42.630;23.380;2024-02-15T22:48:38;21.40;31.80
80701;DHT22;71609;42.630;23.380;2024-02-15T22:51:04;21.40;31.80
80701;DHT22;71609;42.630;23.380;2024-02-15T22:53:39;21.40;31.80
80701;DHT22;71609;42.630;23.380;2024-02-15T22:56:08;21.40;31.80
80701;DHT22;71609;42.630;23.380;2024-02-15T22:58:38;21.40;31.80
80701;DHT22;71609;42.630;23.380;2024-02-15T23:01:08;21.40;31.80
80701;DHT22;71609;42.630;23.380;2024-02-15T23:03:34;21.40;31.80
80701;DHT22;71609;42.630;23.380;2024-02-15T23:06:00;21.40;31.80
80701;DHT22;71609;42.630;23.380;2024-02-15T23:08:27;21.40;31.80
80701;DHT22;71609;42.630;23.380;2024-02-15T23:10:54;21.40;31.80
80701;DHT22;71609;42.630;23.380;2024-02-15T23:13:20;21.40;31.80
80701;DHT22;71609;42.630;23.380;2024-02-15T23:15:46;21.40;31.80
80701;DHT22;71609;42.630;23.380;2024-02-15T23:18:16;21.40;32.90
80701;DHT22;71609;42.630;23.380;2024-02-15T23:20:41;21.40;31.80
80701;DHT22;71609;42.630;23.380;2024-02-15T23:23:12;21.40;31.80
80701;DHT22;71609;42.630;23.380;2024-02-15T23:25:42;21.40;31.80
80701;DHT22;71609;42.630;23.380;2024-02-15T23:28:09;21.40;31.80
80701;DHT22;71609;42.630;23.380;2024-02-15T23:30:36;21.30;31.70
80701;DHT22;71609;42.630;23.380;2024-02-15T23:33:02;21.40;31.80
80701;DHT22;71609;42.630;23.380;2024-02-15T23:35:27;21.30;31.70
80701;DHT22;71609;42.630;23.380;2024-02-15T23:38:03;21.30;31.70
80701;DHT22;71609;42.630;23.380;2024-02-15T23:40:47;21.30;31.80
80701;DHT22;71609;42.630;23.380;2024-02-15T23:43:13;21.30;31.70
80701;DHT22;71609;42.630;23.380;2024-02-15T23:45:39;21.30;31.70
80701;DHT22;71609;42.630;23.380;2024-02-15T23:48:06;21.30;31.90
80701;DHT22;71609;42.630;23.380;2024-02-15T23:50:33;21.30;31.90
80701;DHT22;71609;42.630;23.380;2024-02-15T23:53:00;21.30;32.90
80701;DHT22;71609;42.630;23.380;2024-02-15T23:55:28;21.30;31.80
80701;DHT22;71609;42.630;23.380;2024-02-15T23:57:55;21.30;32.90
